West Parishville, New York
Current Conditions -  °F | °C
As of 10:53 PM on Sunday 23 Nov 2014 (Local Time) from KMSS Reporting Station
Overcast Overcast  
Wind Chill: 44°   Ceiling: 8000
Heat Index: 44°   Visibility: 9mi
Dew Point: 41°   Wind: 3mph
Humidity: 89%   Direction: 40°NE
Pressure: 29.88"   Gusts: NA
Location:  44.6469°N, 74.9157°W
Report Text: KMSS 240353Z AUTO 04003KT 9SM FEW055 BKN080 OVC095 07/05 A2988 RMK AO2 SLP120 T00670050
Loading
Personal Weather Stations






























Interactive Weather Map New forecast layout! Learn more

10-Day Weather Forecast

Advertisements
Track Severe Weather on mobile